Terminal Aerodrome Forecast
Issued by NWS Topeka, KS

Home | Current Version | Previous Version | Text Only | Print | Product List | Glossary On
Versions: 1 2 3 4 5 6 7 8 9 10 11 12 13 14 15 16 17 18 19
000
FTUS43 KTOP 032300
TAFTOP
TAF
KTOP 032323Z 0400/0424 16012G20KT P6SM VCTS SCT080CB
      TEMPO 0400/0402 6SM -TSRA SCT025 BKN040CB
     FM040300 15010KT P6SM VCTS SCT025 BKN040CB=

USA.gov is the U.S. government's official web portal to all federal, state and local government web resources and services.